createdAt,value
2023-03-17T00:00:14.140Z,76.25
2023-03-17T00:02:49.657Z,76.10
2023-03-17T00:05:10.277Z,75.87
2023-03-17T00:07:23.626Z,75.86
2023-03-17T00:09:36.225Z,75.86
2023-03-17T00:11:48.945Z,75.68
2023-03-17T00:14:01.650Z,75.58
2023-03-17T00:16:27.085Z,75.25
2023-03-17T00:18:39.819Z,75.13
2023-03-17T00:20:52.620Z,75.05
2023-03-17T00:23:05.400Z,75.02
2023-03-17T00:25:29.922Z,74.59
2023-03-17T00:27:42.678Z,74.65
2023-03-17T00:29:55.206Z,74.34
2023-03-17T00:32:16.884Z,74.33
2023-03-17T00:34:29.867Z,74.10
2023-03-17T00:36:44.268Z,74.33
2023-03-17T00:38:57.372Z,74.42
2023-03-17T00:41:10.923Z,74.21
2023-03-17T00:43:23.451Z,74.34
2023-03-17T00:45:37.557Z,74.52
2023-03-17T00:47:52.219Z,74.13
2023-03-17T00:50:05.405Z,74.11
2023-03-17T00:52:17.965Z,73.86
2023-03-17T00:54:30.539Z,73.46
2023-03-17T00:56:44.522Z,73.26
2023-03-17T00:58:57.177Z,72.77
2023-03-17T01:01:10.770Z,72.61
2023-03-17T01:03:23.903Z,72.11
2023-03-17T01:05:37.865Z,71.81
2023-03-17T01:07:54.186Z,71.67
2023-03-17T01:10:18.418Z,71.16
2023-03-17T01:12:31.210Z,70.63
2023-03-17T01:14:43.838Z,70.78
2023-03-17T01:16:56.536Z,70.46
2023-03-17T01:19:10.847Z,70.31
2023-03-17T01:21:23.728Z,69.93
2023-03-17T01:23:37.386Z,70.06
2023-03-17T01:25:50.098Z,69.62
2023-03-17T01:28:03.407Z,69.24
2023-03-17T01:30:35.246Z,68.99
2023-03-17T01:32:48.173Z,69.06
2023-03-17T01:35:00.731Z,68.74
2023-03-17T01:37:15.055Z,68.38
2023-03-17T01:39:29.761Z,68.40
2023-03-17T01:41:42.599Z,68.10
2023-03-17T01:43:55.135Z,68.06
2023-03-17T01:46:29.790Z,67.85
2023-03-17T01:48:55.474Z,68.11
2023-03-17T01:51:12.296Z,67.77
2023-03-17T01:53:25.466Z,67.98
2023-03-17T01:55:38.384Z,67.62
2023-03-17T01:57:56.483Z,67.76
2023-03-17T02:00:14.060Z,67.88
2023-03-17T02:02:32.210Z,67.70
2023-03-17T02:04:44.920Z,67.75
2023-03-17T02:06:59.050Z,67.81
2023-03-17T02:09:12.337Z,67.74
2023-03-17T02:11:25.035Z,67.72
2023-03-17T02:13:38.431Z,67.86
2023-03-17T02:15:52.902Z,68.02
2023-03-17T02:18:06.735Z,68.01
2023-03-17T02:20:19.841Z,68.09
2023-03-17T02:22:32.753Z,67.70
2023-03-17T02:24:52.652Z,67.89
2023-03-17T02:27:13.570Z,67.95
2023-03-17T02:29:26.164Z,67.97
2023-03-17T02:31:38.722Z,68.25
2023-03-17T02:33:52.179Z,68.45
2023-03-17T02:36:04.958Z,68.42
2023-03-17T02:38:17.626Z,68.53
2023-03-17T02:40:30.486Z,68.66
2023-03-17T02:42:43.319Z,68.72
2023-03-17T02:44:55.948Z,68.63
2023-03-17T02:47:08.707Z,68.91
2023-03-17T02:49:21.913Z,68.97
2023-03-17T02:51:34.531Z,69.04
2023-03-17T02:53:47.105Z,69.05
2023-03-17T02:55:59.616Z,69.16
2023-03-17T02:58:12.194Z,69.34
2023-03-17T03:00:24.921Z,69.36
2023-03-17T03:02:39.036Z,69.75
2023-03-17T03:04:51.621Z,69.72
2023-03-17T03:07:04.720Z,69.77
2023-03-17T03:09:17.940Z,69.80
2023-03-17T03:11:30.763Z,69.75
2023-03-17T03:13:43.323Z,69.90
2023-03-17T03:15:56.249Z,69.98
2023-03-17T03:18:08.956Z,70.16
2023-03-17T03:20:21.576Z,70.32
2023-03-17T03:22:34.167Z,70.37
2023-03-17T03:24:46.912Z,70.38
2023-03-17T03:26:59.509Z,70.55
2023-03-17T03:29:12.157Z,70.49
2023-03-17T03:31:24.897Z,70.62
2023-03-17T03:33:37.505Z,70.48
2023-03-17T03:35:50.153Z,70.48
2023-03-17T03:38:02.792Z,70.53
2023-03-17T03:40:15.440Z,70.54
2023-03-17T03:42:28.029Z,70.72
2023-03-17T03:44:40.796Z,70.60
2023-03-17T03:46:53.336Z,70.89
2023-03-17T03:49:06.264Z,70.83
2023-03-17T03:51:18.927Z,70.84
2023-03-17T03:53:31.534Z,70.75
2023-03-17T03:55:44.090Z,70.83
2023-03-17T03:57:56.708Z,70.77
2023-03-17T04:00:11.215Z,70.70
2023-03-17T04:02:23.908Z,70.63
2023-03-17T04:04:36.999Z,70.61
2023-03-17T04:06:49.587Z,70.54
2023-03-17T04:09:02.409Z,70.38
2023-03-17T04:11:15.152Z,70.86
2023-03-17T04:13:27.995Z,70.62
2023-03-17T04:15:40.823Z,70.82
2023-03-17T04:17:55.049Z,70.78
2023-03-17T04:20:08.461Z,71.02
2023-03-17T04:22:20.967Z,70.97
2023-03-17T04:24:34.875Z,70.97
2023-03-17T04:26:47.490Z,71.12
2023-03-17T04:29:00.535Z,71.11
2023-03-17T04:31:13.203Z,70.99
2023-03-17T04:33:26.601Z,71.17
2023-03-17T04:35:39.268Z,71.27
2023-03-17T04:37:51.825Z,71.35
2023-03-17T04:40:06.401Z,71.54
2023-03-17T04:42:19.147Z,71.90
2023-03-17T04:44:32.424Z,71.94
2023-03-17T04:46:45.044Z,72.26
2023-03-17T04:48:57.726Z,72.33
2023-03-17T04:51:11.744Z,72.51
2023-03-17T04:53:24.634Z,72.51
2023-03-17T04:55:37.521Z,72.57
2023-03-17T04:57:50.124Z,72.41
2023-03-17T05:00:04.994Z,72.84
2023-03-17T05:02:18.840Z,72.91
2023-03-17T05:04:32.440Z,73.12
2023-03-17T05:06:45.725Z,73.25
2023-03-17T05:08:58.361Z,73.32
2023-03-17T05:11:12.500Z,73.34
2023-03-17T05:13:26.599Z,73.68
2023-03-17T05:15:40.068Z,73.72
2023-03-17T05:17:52.934Z,74.05
2023-03-17T05:20:06.111Z,74.02
2023-03-17T05:22:19.953Z,74.21
2023-03-17T05:24:32.825Z,74.61
2023-03-17T05:26:45.612Z,74.62
2023-03-17T05:28:58.641Z,75.06
2023-03-17T05:31:11.775Z,75.05
2023-03-17T05:33:25.034Z,75.48
2023-03-17T05:35:37.817Z,75.42
2023-03-17T05:37:50.385Z,75.70
2023-03-17T05:40:03.454Z,76.18
2023-03-17T05:42:16.370Z,75.85
2023-03-17T05:44:29.032Z,75.87
2023-03-17T05:46:42.023Z,76.43
2023-03-17T05:48:54.731Z,76.79
2023-03-17T05:51:07.428Z,76.78
2023-03-17T05:53:20.030Z,76.68
2023-03-17T05:55:32.606Z,77.25
2023-03-17T05:57:45.598Z,77.57
2023-03-17T05:59:58.190Z,77.55
2023-03-17T06:02:11.424Z,77.62
2023-03-17T06:04:26.398Z,77.53
2023-03-17T06:06:39.062Z,77.85
2023-03-17T06:08:51.687Z,77.84
2023-03-17T06:11:04.388Z,77.79
2023-03-17T06:13:17.042Z,77.60
2023-03-17T06:15:29.960Z,77.45
2023-03-17T06:17:43.107Z,77.12
2023-03-17T06:19:55.903Z,76.36
2023-03-17T06:22:09.262Z,75.63
2023-03-17T06:24:21.916Z,75.15
2023-03-17T06:26:34.642Z,74.73
2023-03-17T06:28:47.266Z,73.95
2023-03-17T06:31:00.012Z,73.41
2023-03-17T06:33:13.125Z,72.65
2023-03-17T06:35:25.734Z,72.31
2023-03-17T06:37:38.850Z,70.87
2023-03-17T06:39:51.853Z,69.99
2023-03-17T06:42:06.253Z,69.64
2023-03-17T06:44:19.088Z,68.78
2023-03-17T06:46:32.479Z,68.43
2023-03-17T06:48:45.086Z,67.19
2023-03-17T06:50:57.663Z,66.53
2023-03-17T06:53:11.416Z,66.32
2023-03-17T06:55:24.054Z,65.11
2023-03-17T06:57:37.233Z,64.31
2023-03-17T06:59:49.791Z,63.59
2023-03-17T07:02:02.495Z,63.82
2023-03-17T07:04:15.902Z,62.98
2023-03-17T07:06:28.622Z,62.77
2023-03-17T07:08:41.662Z,62.89
2023-03-17T07:10:56.103Z,62.10
2023-03-17T07:13:10.138Z,60.85
2023-03-17T07:15:23.960Z,59.42
2023-03-17T07:17:36.552Z,59.39
2023-03-17T07:19:49.189Z,59.49
2023-03-17T07:22:01.833Z,59.22
2023-03-17T07:24:14.558Z,59.46
2023-03-17T07:26:27.244Z,59.14
2023-03-17T07:28:40.485Z,58.93
2023-03-17T07:30:53.111Z,58.05
2023-03-17T07:33:05.742Z,57.94
2023-03-17T07:35:19.216Z,58.15
2023-03-17T07:37:32.008Z,58.57
2023-03-17T07:39:47.125Z,58.19
2023-03-17T07:41:59.720Z,57.78
2023-03-17T07:44:12.491Z,57.10
2023-03-17T07:46:25.290Z,56.72
2023-03-17T07:48:42.005Z,56.21
2023-03-17T07:50:54.562Z,55.77
2023-03-17T07:53:07.123Z,55.79
2023-03-17T07:55:19.658Z,55.67
2023-03-17T07:57:32.657Z,54.82
2023-03-17T07:59:45.553Z,54.57
2023-03-17T08:01:59.620Z,54.45
2023-03-17T08:04:13.243Z,53.07
2023-03-17T08:06:26.566Z,53.22
2023-03-17T08:08:39.213Z,53.36
2023-03-17T08:10:51.943Z,52.92
2023-03-17T08:13:04.635Z,53.00
2023-03-17T08:15:18.389Z,52.62
2023-03-17T08:17:31.754Z,52.98
2023-03-17T08:19:44.306Z,52.06
2023-03-17T08:21:57.106Z,52.35
2023-03-17T08:24:09.886Z,52.08
2023-03-17T08:26:23.180Z,51.02
2023-03-17T08:28:36.162Z,51.42
2023-03-17T08:30:50.614Z,51.55
2023-03-17T08:33:04.015Z,51.25
2023-03-17T08:35:17.217Z,50.43
2023-03-17T08:37:29.730Z,50.19
2023-03-17T08:39:42.321Z,49.49
2023-03-17T08:41:54.851Z,48.99
2023-03-17T08:44:09.975Z,48.72
2023-03-17T08:46:28.157Z,48.58
2023-03-17T08:48:41.401Z,48.42
2023-03-17T08:50:54.011Z,48.07
2023-03-17T08:53:08.409Z,47.69
2023-03-17T08:55:21.164Z,48.20
2023-03-17T08:57:33.664Z,47.63
2023-03-17T08:59:47.395Z,47.25
2023-03-17T09:02:00.567Z,47.46
2023-03-17T09:04:13.204Z,46.65
2023-03-17T09:06:26.849Z,46.45
2023-03-17T09:08:44.667Z,46.64
2023-03-17T09:10:57.726Z,46.07
2023-03-17T09:13:11.558Z,46.32
2023-03-17T09:15:27.643Z,45.86
2023-03-17T09:17:42.144Z,45.14
2023-03-17T09:19:54.678Z,44.55
2023-03-17T09:22:07.754Z,43.92
2023-03-17T09:24:20.579Z,43.80
2023-03-17T09:26:33.108Z,43.97
2023-03-17T09:28:45.796Z,42.53
2023-03-17T09:31:03.411Z,42.26
2023-03-17T09:33:17.657Z,42.04
2023-03-17T09:35:31.548Z,41.83
2023-03-17T09:37:44.285Z,41.47
2023-03-17T09:39:57.966Z,41.64
2023-03-17T09:42:24.544Z,40.65
2023-03-17T09:45:34.786Z,39.73
2023-03-17T09:48:02.863Z,39.98
2023-03-17T09:50:25.396Z,39.37
2023-03-17T09:52:38.349Z,38.79
2023-03-17T09:54:54.686Z,38.72
2023-03-17T09:57:18.120Z,38.18
2023-03-17T09:59:35.470Z,37.71
2023-03-17T10:01:48.066Z,37.79
2023-03-17T10:04:02.665Z,37.52
2023-03-17T10:06:18.688Z,37.39
2023-03-17T10:08:38.680Z,37.75
2023-03-17T10:10:57.276Z,38.23
2023-03-17T10:13:51.370Z,37.21
2023-03-17T10:16:17.543Z,37.08
2023-03-17T10:18:37.591Z,37.54
2023-03-17T10:21:04.755Z,36.94
2023-03-17T10:23:25.922Z,37.70
2023-03-17T10:25:39.403Z,37.54
2023-03-17T10:28:16.002Z,37.05
2023-03-17T10:30:33.438Z,36.57
2023-03-17T10:32:46.722Z,36.14
2023-03-17T10:34:59.339Z,35.59
2023-03-17T10:37:18.813Z,34.97
2023-03-17T10:39:32.948Z,34.97
2023-03-17T10:41:53.574Z,35.25
2023-03-17T10:44:21.028Z,35.40
2023-03-17T10:46:33.617Z,34.81
2023-03-17T10:48:56.063Z,34.78
2023-03-17T10:51:10.059Z,35.10
2023-03-17T10:53:30.375Z,34.27
2023-03-17T10:55:49.774Z,33.95
2023-03-17T10:58:27.103Z,33.27
2023-03-17T11:00:57.145Z,33.68
2023-03-17T11:03:21.309Z,33.47
2023-03-17T11:05:34.013Z,33.73
2023-03-17T11:07:46.814Z,33.49
2023-03-17T11:10:05.324Z,33.58
2023-03-17T11:12:28.699Z,33.02
2023-03-17T11:14:43.551Z,32.99
2023-03-17T11:17:02.651Z,33.00
2023-03-17T11:19:18.494Z,33.18
2023-03-17T11:21:46.792Z,32.85
2023-03-17T11:24:18.768Z,32.80
2023-03-17T11:26:43.253Z,32.72
2023-03-17T11:29:26.449Z,32.01
2023-03-17T11:31:49.403Z,32.42
2023-03-17T11:34:23.393Z,32.72
2023-03-17T11:37:00.103Z,32.57
2023-03-17T11:39:17.179Z,32.63
2023-03-17T11:41:45.019Z,31.88
2023-03-17T11:44:22.073Z,31.18
2023-03-17T11:46:43.847Z,31.60
2023-03-17T11:49:10.095Z,30.91
2023-03-17T11:51:34.514Z,31.13
2023-03-17T11:54:02.217Z,31.44
2023-03-17T11:56:20.352Z,30.83
2023-03-17T11:58:37.572Z,30.56
2023-03-17T12:00:57.048Z,30.58
2023-03-17T12:03:17.683Z,30.34
2023-03-17T12:05:30.676Z,30.34
2023-03-17T12:07:55.400Z,30.50
2023-03-17T12:10:34.396Z,30.61
2023-03-17T12:12:58.196Z,30.91
2023-03-17T12:15:18.709Z,30.54
2023-03-17T12:17:36.644Z,30.44
2023-03-17T12:20:07.059Z,30.48
2023-03-17T12:22:28.448Z,30.45
2023-03-17T12:24:47.550Z,30.26
2023-03-17T12:27:07.482Z,29.99
2023-03-17T12:29:47.363Z,30.16
2023-03-17T12:32:12.321Z,30.11
2023-03-17T12:34:45.068Z,29.62
2023-03-17T12:36:58.098Z,29.46
2023-03-17T12:39:18.863Z,29.80
2023-03-17T12:41:49.045Z,29.68
2023-03-17T12:44:27.408Z,29.26
2023-03-17T12:46:54.060Z,28.88
2023-03-17T12:49:45.112Z,28.96
2023-03-17T12:52:12.654Z,28.38
2023-03-17T12:54:29.564Z,28.41
2023-03-17T12:56:47.738Z,27.94
2023-03-17T12:59:07.307Z,27.88
2023-03-17T13:01:39.427Z,28.35
2023-03-17T13:04:12.862Z,28.02
2023-03-17T13:06:25.570Z,28.14
2023-03-17T13:08:44.097Z,28.31
2023-03-17T13:11:34.286Z,28.35
2023-03-17T13:13:49.620Z,28.64
2023-03-17T13:16:06.328Z,28.37
2023-03-17T13:18:18.983Z,28.49
2023-03-17T13:20:39.046Z,28.29
2023-03-17T13:23:16.477Z,28.04
2023-03-17T13:25:45.495Z,28.51
2023-03-17T13:28:22.695Z,28.36
2023-03-17T13:30:44.607Z,28.05
2023-03-17T13:33:16.396Z,27.99
2023-03-17T13:35:45.298Z,28.56
2023-03-17T13:38:19.693Z,28.32
2023-03-17T13:40:57.979Z,28.59
2023-03-17T13:43:28.221Z,28.73
2023-03-17T13:45:46.229Z,28.79
2023-03-17T13:48:29.686Z,28.77
2023-03-17T13:50:42.982Z,29.15
2023-03-17T13:53:01.688Z,29.19
2023-03-17T13:55:17.273Z,29.18
2023-03-17T13:57:39.026Z,29.10
2023-03-17T14:00:02.682Z,28.72
2023-03-17T14:02:21.498Z,28.67
2023-03-17T14:04:46.314Z,28.83
2023-03-17T14:07:05.300Z,28.86
2023-03-17T14:09:38.969Z,29.07
2023-03-17T14:11:52.512Z,29.04
2023-03-17T14:14:33.525Z,28.91
2023-03-17T14:17:16.361Z,28.93
2023-03-17T14:19:29.872Z,28.87
2023-03-17T14:21:42.987Z,28.98
2023-03-17T14:23:58.579Z,28.87
2023-03-17T14:26:11.805Z,29.14
2023-03-17T14:28:28.391Z,29.07
2023-03-17T14:30:52.148Z,29.07
2023-03-17T14:33:26.483Z,29.22
2023-03-17T14:35:43.212Z,29.22
2023-03-17T14:37:55.933Z,29.24
2023-03-17T14:40:20.816Z,29.15
2023-03-17T14:42:33.396Z,29.29
2023-03-17T14:44:46.066Z,29.36
2023-03-17T14:47:04.554Z,29.41
2023-03-17T14:49:21.185Z,29.43
2023-03-17T14:51:36.200Z,29.58
2023-03-17T14:53:51.029Z,29.50
2023-03-17T14:56:04.395Z,29.68
2023-03-17T14:58:27.037Z,29.97
2023-03-17T15:00:54.695Z,30.00
2023-03-17T15:03:20.550Z,30.36
2023-03-17T15:05:39.940Z,30.27
2023-03-17T15:07:52.943Z,30.47
2023-03-17T15:10:15.723Z,30.45
2023-03-17T15:12:29.508Z,30.09
2023-03-17T15:14:44.583Z,29.65
2023-03-17T15:16:57.735Z,29.87
2023-03-17T15:19:53.625Z,29.66
2023-03-17T15:22:30.969Z,29.64
2023-03-17T15:24:44.191Z,30.20
2023-03-17T15:27:17.549Z,30.21
2023-03-17T15:29:30.541Z,30.34
2023-03-17T15:31:43.203Z,30.33
2023-03-17T15:33:57.381Z,30.51
2023-03-17T15:36:31.229Z,30.66
2023-03-17T15:38:44.678Z,30.84
2023-03-17T15:40:57.613Z,30.58
2023-03-17T15:43:15.342Z,30.66
2023-03-17T15:45:27.885Z,30.83
2023-03-17T15:47:41.848Z,31.05
2023-03-17T15:50:01.892Z,31.19
2023-03-17T15:52:17.358Z,31.34
2023-03-17T15:54:29.968Z,31.30
2023-03-17T15:56:43.244Z,31.42
2023-03-17T15:58:55.970Z,31.71
2023-03-17T16:01:10.647Z,31.96
2023-03-17T16:03:32.484Z,32.00
2023-03-17T16:05:45.353Z,32.16
2023-03-17T16:07:58.035Z,32.48
2023-03-17T16:10:20.614Z,32.59
2023-03-17T16:12:33.100Z,32.58
2023-03-17T16:14:45.774Z,32.74
2023-03-17T16:16:58.337Z,32.75
2023-03-17T16:19:22.814Z,32.87
2023-03-17T16:21:36.017Z,32.94
2023-03-17T16:23:49.153Z,33.05
2023-03-17T16:26:14.136Z,33.07
2023-03-17T16:28:31.158Z,33.29
2023-03-17T16:30:44.770Z,33.38
2023-03-17T16:33:00.976Z,33.62
2023-03-17T16:35:15.744Z,33.64
2023-03-17T16:37:28.268Z,33.76
2023-03-17T16:39:42.144Z,34.07
2023-03-17T16:41:54.749Z,34.24
2023-03-17T16:44:11.330Z,34.47
2023-03-17T16:46:26.494Z,34.66
2023-03-17T16:48:39.180Z,34.65
2023-03-17T16:50:52.185Z,34.73
2023-03-17T16:53:04.703Z,34.90
2023-03-17T16:55:19.263Z,35.00
2023-03-17T16:57:33.192Z,35.10
2023-03-17T16:59:45.782Z,35.31
2023-03-17T17:01:58.459Z,35.38
2023-03-17T17:04:11.229Z,35.43
2023-03-17T17:06:24.045Z,35.55
2023-03-17T17:08:36.584Z,35.66
2023-03-17T17:10:49.735Z,35.85
2023-03-17T17:13:05.898Z,36.36
2023-03-17T17:15:21.734Z,36.31
2023-03-17T17:17:36.243Z,36.42
2023-03-17T17:19:48.804Z,36.58
2023-03-17T17:22:01.474Z,36.71
2023-03-17T17:24:16.107Z,37.03
2023-03-17T17:26:28.631Z,37.06
2023-03-17T17:28:41.315Z,37.26
2023-03-17T17:30:54.084Z,37.31
2023-03-17T17:33:06.800Z,37.83
2023-03-17T17:35:19.535Z,37.70
2023-03-17T17:37:32.625Z,38.10
2023-03-17T17:39:45.240Z,38.11
2023-03-17T17:41:57.772Z,38.58
2023-03-17T17:44:10.389Z,38.57
2023-03-17T17:46:23.145Z,38.58
2023-03-17T17:48:35.946Z,38.83
2023-03-17T17:50:49.318Z,39.12
2023-03-17T17:53:05.487Z,39.26
2023-03-17T17:55:19.288Z,39.40
2023-03-17T17:57:32.105Z,39.57
2023-03-17T17:59:44.902Z,39.41
2023-03-17T18:01:59.823Z,39.84
2023-03-17T18:04:12.858Z,39.86
2023-03-17T18:06:25.595Z,39.77
2023-03-17T18:08:38.432Z,39.90
2023-03-17T18:10:52.214Z,40.33
2023-03-17T18:13:05.293Z,40.20
2023-03-17T18:15:18.073Z,40.56
2023-03-17T18:17:32.435Z,40.73
2023-03-17T18:19:45.136Z,40.78
2023-03-17T18:21:57.712Z,40.88
2023-03-17T18:24:10.347Z,41.10
2023-03-17T18:26:23.635Z,41.34
2023-03-17T18:28:36.635Z,41.38
2023-03-17T18:30:49.707Z,41.29
2023-03-17T18:33:09.126Z,41.60
2023-03-17T18:35:24.187Z,41.69
2023-03-17T18:37:37.172Z,41.84
2023-03-17T18:40:09.726Z,41.89
2023-03-17T18:42:22.484Z,41.96
2023-03-17T18:44:35.344Z,42.20
2023-03-17T18:46:48.356Z,42.21
2023-03-17T18:49:01.010Z,42.50
2023-03-17T18:51:13.551Z,42.57
2023-03-17T18:53:26.214Z,42.78
2023-03-17T18:55:39.319Z,42.69
2023-03-17T18:57:51.861Z,42.80
2023-03-17T19:00:06.900Z,43.02
2023-03-17T19:02:20.589Z,43.05
2023-03-17T19:04:33.232Z,43.09
2023-03-17T19:06:46.488Z,43.34
2023-03-17T19:08:59.095Z,43.49
2023-03-17T19:11:13.915Z,43.44
2023-03-17T19:13:26.499Z,43.53
2023-03-17T19:15:39.170Z,43.63
2023-03-17T19:17:51.825Z,43.72
2023-03-17T19:20:06.006Z,44.00
2023-03-17T19:22:18.638Z,44.00
2023-03-17T19:24:32.158Z,44.12
2023-03-17T19:26:44.957Z,44.32
2023-03-17T19:28:57.557Z,44.51
2023-03-17T19:31:10.261Z,44.59
2023-03-17T19:33:22.956Z,44.74
2023-03-17T19:35:35.535Z,44.79
2023-03-17T19:37:48.307Z,44.93
2023-03-17T19:40:00.829Z,45.26
2023-03-17T19:42:13.786Z,45.32
2023-03-17T19:44:26.603Z,45.51
2023-03-17T19:46:39.328Z,45.55
2023-03-17T19:48:53.443Z,45.81
2023-03-17T19:51:06.717Z,45.96
2023-03-17T19:53:19.286Z,46.14
2023-03-17T19:55:32.030Z,46.33
2023-03-17T19:57:44.799Z,46.56
2023-03-17T19:59:57.706Z,46.56
2023-03-17T20:02:15.115Z,46.58
2023-03-17T20:04:27.824Z,46.89
2023-03-17T20:06:40.423Z,46.87
2023-03-17T20:08:53.028Z,47.07
2023-03-17T20:11:06.262Z,47.18
2023-03-17T20:13:18.814Z,47.36
2023-03-17T20:15:31.468Z,47.44
2023-03-17T20:17:44.073Z,47.44
2023-03-17T20:19:56.588Z,47.64
2023-03-17T20:22:09.180Z,47.63
2023-03-17T20:24:22.368Z,47.67
2023-03-17T20:26:35.202Z,47.72
2023-03-17T20:28:47.753Z,47.61
2023-03-17T20:31:02.874Z,47.70
2023-03-17T20:33:16.475Z,47.51
2023-03-17T20:35:29.059Z,47.60
2023-03-17T20:37:41.705Z,47.73
2023-03-17T20:39:55.956Z,47.69
2023-03-17T20:42:14.823Z,47.63
2023-03-17T20:44:27.423Z,47.50
2023-03-17T20:46:40.285Z,47.22
2023-03-17T20:48:58.592Z,47.24
2023-03-17T20:51:16.327Z,47.06
2023-03-17T20:53:29.683Z,46.84
2023-03-17T20:55:42.447Z,46.59
2023-03-17T20:57:54.968Z,46.31
2023-03-17T21:00:12.509Z,46.20
2023-03-17T21:02:25.375Z,46.03
2023-03-17T21:04:37.902Z,45.45
2023-03-17T21:06:50.628Z,45.30
2023-03-17T21:09:04.614Z,44.99
2023-03-17T21:11:20.293Z,44.97
2023-03-17T21:13:33.050Z,44.86
2023-03-17T21:15:45.581Z,44.77
2023-03-17T21:17:58.347Z,44.78
2023-03-17T21:20:12.685Z,44.56
2023-03-17T21:22:25.649Z,44.60
2023-03-17T21:24:39.790Z,44.45
2023-03-17T21:26:52.393Z,44.27
2023-03-17T21:29:05.134Z,44.24
2023-03-17T21:31:18.278Z,44.32
2023-03-17T21:33:31.216Z,44.43
2023-03-17T21:35:43.954Z,44.45
2023-03-17T21:37:57.711Z,44.60
2023-03-17T21:40:13.343Z,44.72
2023-03-17T21:42:25.958Z,44.82
2023-03-17T21:44:39.233Z,44.96
2023-03-17T21:46:53.422Z,44.92
2023-03-17T21:49:06.141Z,45.06
2023-03-17T21:51:19.933Z,45.16
2023-03-17T21:53:33.277Z,45.16
2023-03-17T21:55:45.971Z,45.08
2023-03-17T21:57:59.155Z,44.93
2023-03-17T22:00:12.708Z,44.79
2023-03-17T22:02:25.400Z,44.60
2023-03-17T22:04:38.555Z,44.47
2023-03-17T22:06:52.149Z,44.42
2023-03-17T22:09:05.378Z,44.33
2023-03-17T22:11:19.426Z,44.37
2023-03-17T22:13:31.972Z,44.36
2023-03-17T22:15:44.805Z,44.26
2023-03-17T22:17:57.686Z,44.26
2023-03-17T22:20:11.377Z,44.18
2023-03-17T22:22:24.944Z,44.23
2023-03-17T22:24:40.807Z,44.15
2023-03-17T22:26:53.495Z,44.19
2023-03-17T22:29:06.248Z,44.11
2023-03-17T22:31:25.153Z,44.09
2023-03-17T22:33:38.564Z,44.23
2023-03-17T22:35:51.223Z,44.28
2023-03-17T22:38:04.450Z,44.12
2023-03-17T22:40:19.005Z,44.04
2023-03-17T22:42:32.312Z,43.96
2023-03-17T22:44:44.918Z,43.74
2023-03-17T22:46:57.513Z,43.68
2023-03-17T22:49:10.145Z,43.64
2023-03-17T22:51:24.904Z,43.51
2023-03-17T22:53:38.930Z,43.47
2023-03-17T22:55:51.579Z,43.14
2023-03-17T22:58:04.258Z,43.17
2023-03-17T23:00:17.282Z,43.12
2023-03-17T23:02:29.800Z,43.01
2023-03-17T23:04:42.893Z,42.97
2023-03-17T23:06:56.267Z,42.93
2023-03-17T23:09:09.443Z,43.01
2023-03-17T23:11:24.645Z,42.69
2023-03-17T23:13:37.237Z,42.63
2023-03-17T23:15:50.460Z,42.80
2023-03-17T23:18:03.800Z,42.58
2023-03-17T23:20:16.753Z,42.62
2023-03-17T23:22:29.312Z,42.46
2023-03-17T23:24:41.877Z,42.63
2023-03-17T23:26:54.440Z,42.62
2023-03-17T23:29:08.465Z,42.71
2023-03-17T23:31:22.311Z,42.77
2023-03-17T23:33:35.118Z,42.69
2023-03-17T23:35:50.153Z,42.72
2023-03-17T23:38:04.021Z,42.73
2023-03-17T23:40:17.598Z,42.78
2023-03-17T23:42:30.359Z,42.97
2023-03-17T23:44:42.975Z,43.00
2023-03-17T23:46:55.565Z,43.23
2023-03-17T23:49:08.212Z,43.51
2023-03-17T23:51:21.176Z,43.93
2023-03-17T23:53:33.856Z,44.03
2023-03-17T23:55:46.806Z,44.33
2023-03-17T23:58:01.260Z,44.45
